Bangkok (Don Mueang), Thailand

5:38 AM ICT on August 31, 2016 (GMT +0700)
Soi Ekkarat 15/2 | | Change Station

Elev 19 ft 13.96 °N, 100.60 °E | Updated 7 minutes ago

Partly Cloudy
Partly Cloudy
82.6 °F
Feels Like 93 °F
N
0.6
Wind Variable Wind from SSW
Gusts 1.9 mph

Today
High -- | Low -- °F
--% Chance of Precip.
Yesterday
High -- | Low -- °F
Precip. -- in
Pressure 29.77 in
Visibility 6.2 miles
Clouds Few 2000 ft
Heat Index 93 °F
Dew Point 79 °F
Humidity 89%
Rainfall 0.04 in
Snow Depth Not available.
6:05 AM 6:29 PM
Waning Crescent, 2% visible
METAR VTBD 302230Z 24003KT 9999 FEW020 27/26 Q1008 NOSIG
Pressure 29.77 in
Visibility 6.2 miles
Clouds Few 2000 ft
Heat Index 93 °F
Dew Point 79 °F
Humidity 89%
Rainfall 0.04 in
Snow Depth Not available.
6:05 AM 6:29 PM
Waning Crescent, 2% visible
METAR VTBD 302230Z 24003KT 9999 FEW020 27/26 Q1008 NOSIG

10-Day Weather Forecast

No radar image for this location.
×

Almanac

Astronomy

Aug. 31, 2016 Rise Set
Actual Time
Civil Twilight
Nautical Twilight
Astronomical Twilight
Moon
Length of Visible Light
Length of Day
Tomorrow will be .
, % of the Moon is Illuminated

Today's Extremes

Country Highs Country Lows

Community

WunderPhotos

Upload Photos

1,935,914 photos uploaded!

WunderBlog® & News

Nearby

Air Quality

  Air Quality AQ Index Pollutant
Not available.

Snow Depth

Station Depth Elevation

Earthquake Activity

City Distance Mag. Time & Date
Minimum magnitude displayed is 2.5.

Coastal Water Temperatures

Place Temperature

Stations

Nearby Weather Stations

Station Location Temp. Windchill Dew Point Humidity Wind Precip. Elev Updated Type